Time;durP1;ratioP1;P1;durP2;ratioP2;P2;SDS_P1;SDS_P2;PMS_P1;PMS_P2;Temp;Humidity;BMP_temperature;BMP_pressure;BME280_temperature;BME280_humidity;BME280_pressure;Samples;Min_cycle;Max_cycle;Signal;HPM_P1;HPM_P2
2021/09/14 00:00:30;;;;;;;4.55;1.35;;;;;;;15.93;78.61;98411.63;5069588;28;20048;-55
2021/09/14 00:02:56;;;;;;;1.77;1.15;;;;;;;15.76;79.10;98396.34;5069800;28;20036;-56
2021/09/14 00:05:22;;;;;;;2.22;1.23;;;;;;;15.91;79.16;98413.56;5069662;28;20537;-56
2021/09/14 00:08:12;;;;;;;4.03;1.10;;;;;;;15.90;79.40;98424.97;5075918;28;20051;-56
2021/09/14 00:11:04;;;;;;;2.50;1.23;;;;;;;15.81;79.42;98421.25;5069140;28;20497;-57
2021/09/14 00:13:29;;;;;;;2.25;1.10;;;;;;;15.62;79.19;98408.72;5068120;28;20033;-56
2021/09/14 00:15:55;;;;;;;2.00;1.10;;;;;;;15.59;79.46;98429.06;5069869;28;20040;-57
2021/09/14 00:18:21;;;;;;;1.50;1.00;;;;;;;15.51;79.58;98434.00;5051308;28;20044;-55
2021/09/14 00:20:46;;;;;;;4.65;1.10;;;;;;;15.44;79.48;98432.81;5088337;28;20086;-56
2021/09/14 00:23:12;;;;;;;1.10;1.00;;;;;;;15.26;79.03;98425.34;5077524;28;20522;-55
2021/09/14 00:25:38;;;;;;;1.77;1.08;;;;;;;15.31;79.17;98448.56;5073373;28;20031;-55
2021/09/14 00:28:03;;;;;;;2.50;1.33;;;;;;;15.28;79.13;98447.00;5078144;28;20040;-54
2021/09/14 00:30:29;;;;;;;5.18;1.00;;;;;;;15.30;78.49;98446.91;5072957;28;20072;-58
2021/09/14 00:32:55;;;;;;;2.65;1.00;;;;;;;15.38;76.35;98462.91;5069146;28;20032;-55
2021/09/14 00:35:20;;;;;;;2.60;0.93;;;;;;;15.35;74.31;98473.59;5068352;28;20045;-55
2021/09/14 00:37:46;;;;;;;3.63;0.80;;;;;;;15.26;71.82;98469.88;5096042;28;20063;-56
2021/09/14 00:40:12;;;;;;;6.10;0.95;;;;;;;15.23;70.29;98471.84;5087146;28;20048;-55
2021/09/14 00:42:38;;;;;;;0.88;0.80;;;;;;;15.22;68.41;98473.66;5085075;28;20777;-57
2021/09/14 00:45:05;;;;;;;0.80;0.70;;;;;;;15.26;66.75;98492.59;5075699;28;20042;-56
2021/09/14 00:47:31;;;;;;;0.98;0.70;;;;;;;15.20;65.95;98480.78;5069348;28;20057;-57
2021/09/14 00:50:05;;;;;;;2.00;0.90;;;;;;;15.22;64.65;98501.63;5079229;28;20040;-55
2021/09/14 00:52:51;;;;;;;2.72;0.68;;;;;;;15.11;63.77;98502.38;5103713;28;20061;-55
2021/09/14 00:55:16;;;;;;;2.20;0.80;;;;;;;14.96;63.58;98498.25;5085129;28;20041;-56
2021/09/14 00:57:44;;;;;;;2.22;0.75;;;;;;;14.81;62.69;98496.72;5092022;28;20075;-57
2021/09/14 01:00:10;;;;;;;3.05;0.77;;;;;;;14.64;63.07;98508.34;5078806;28;20040;-55
2021/09/14 01:03:04;;;;;;;1.45;0.80;;;;;;;14.47;63.11;98508.69;5084933;28;20058;-58
2021/09/14 01:05:30;;;;;;;0.82;0.70;;;;;;;14.37;63.64;98516.31;5081490;28;20040;-56
2021/09/14 01:07:56;;;;;;;1.52;0.80;;;;;;;14.20;63.50;98503.53;5090674;28;20090;-57
2021/09/14 01:10:22;;;;;;;1.80;0.70;;;;;;;14.20;63.86;98513.13;5072663;28;20145;-58
2021/09/14 01:12:48;;;;;;;5.93;0.90;;;;;;;14.18;64.08;98526.34;5073827;28;20044;-56
2021/09/14 01:15:15;;;;;;;1.77;0.82;;;;;;;14.14;64.04;98510.94;5072456;28;20040;-55
2021/09/14 01:17:41;;;;;;;1.38;0.77;;;;;;;14.19;64.23;98524.53;5084544;28;20126;-56
2021/09/14 01:20:08;;;;;;;1.45;0.70;;;;;;;14.12;64.17;98524.13;5074949;28;20127;-56
2021/09/14 01:22:34;;;;;;;1.30;0.80;;;;;;;14.03;64.24;98531.75;5074685;28;20047;-55
2021/09/14 01:25:02;;;;;;;2.40;0.80;;;;;;;13.83;64.32;98514.75;5084152;28;20089;-55
2021/09/14 01:27:28;;;;;;;1.63;0.90;;;;;;;13.86;64.99;98528.47;5085642;28;20497;-55
2021/09/14 01:30:14;;;;;;;3.05;1.00;;;;;;;13.81;65.10;98535.78;5081094;28;20081;-55
2021/09/14 01:32:44;;;;;;;3.88;1.17;;;;;;;13.71;65.22;98537.28;5090188;28;20052;-56
2021/09/14 01:35:24;;;;;;;1.33;0.70;;;;;;;13.63;65.49;98526.53;5072724;28;20047;-57
2021/09/14 01:37:54;;;;;;;2.13;0.80;;;;;;;13.58;65.60;98533.81;5097757;28;20587;-55
2021/09/14 01:40:21;;;;;;;3.30;0.98;;;;;;;13.49;66.13;98532.66;5087873;28;20135;-54
2021/09/14 01:42:51;;;;;;;1.67;0.80;;;;;;;13.46;66.30;98534.59;5082217;28;20415;-54
2021/09/14 01:45:17;;;;;;;0.95;0.73;;;;;;;13.33;66.54;98521.50;5064770;28;20055;-53
2021/09/14 01:47:44;;;;;;;1.15;0.80;;;;;;;13.33;66.58;98529.34;5060619;28;20045;-57
2021/09/14 01:50:12;;;;;;;1.83;0.73;;;;;;;13.27;66.95;98534.94;5068883;28;20051;-56
2021/09/14 01:52:38;;;;;;;1.58;0.90;;;;;;;13.24;67.60;98536.94;5064450;28;20063;-57
2021/09/14 01:55:10;;;;;;;1.30;0.68;;;;;;;13.20;67.96;98532.81;5067890;28;20131;-57
2021/09/14 01:57:39;;;;;;;2.25;0.77;;;;;;;13.14;67.99;98529.66;5068079;28;20044;-56
2021/09/14 02:00:20;;;;;;;1.90;0.70;;;;;;;13.09;67.84;98530.84;5086032;28;20113;-55
2021/09/14 02:06:14;;;;;;;1.00;0.77;;;;;;;12.92;68.64;98533.69;5067499;28;20097;-56
2021/09/14 02:09:15;;;;;;;2.28;0.70;;;;;;;12.84;69.16;98528.09;5044722;28;20037;-56
2021/09/14 02:45:02;;;;;;;1.30;0.80;;;;;;;12.73;64.51;98557.44;5062496;28;20499;-56
2021/09/14 03:01:07;;;;;;;3.75;0.93;;;;;;;12.60;64.53;98539.13;5103167;28;20052;-56
2021/09/14 03:03:38;;;;;;;1.15;0.80;;;;;;;12.72;64.34;98554.00;5086564;28;20052;-55
2021/09/14 03:06:05;;;;;;;3.80;0.90;;;;;;;12.72;64.71;98567.03;5076259;28;20051;-56
2021/09/14 03:08:35;;;;;;;4.50;0.82;;;;;;;12.66;64.83;98563.97;5070090;28;20097;-58
2021/09/14 03:11:12;;;;;;;2.38;0.70;;;;;;;12.64;64.99;98569.28;5071877;28;20526;-57
2021/09/14 03:13:45;;;;;;;2.03;0.63;;;;;;;12.62;64.97;98576.34;5071303;28;20067;-55
2021/09/14 03:16:12;;;;;;;3.05;0.82;;;;;;;12.58;64.88;98580.06;5085844;28;20094;-56
2021/09/14 03:18:39;;;;;;;0.93;0.82;;;;;;;12.53;64.57;98576.06;5103607;28;20039;-59
2021/09/14 03:21:06;;;;;;;1.95;0.80;;;;;;;12.56;64.90;98576.72;5066282;28;20067;-53
2021/09/14 03:23:33;;;;;;;1.80;0.90;;;;;;;12.56;64.74;98591.53;5089719;28;20043;-51
2021/09/14 03:25:59;;;;;;;3.45;0.80;;;;;;;12.57;65.13;98587.97;5079666;28;20055;-53
2021/09/14 03:28:25;;;;;;;1.23;0.77;;;;;;;12.58;64.90;98589.66;5085227;28;20040;-55
2021/09/14 03:30:52;;;;;;;2.03;0.82;;;;;;;12.54;64.79;98581.19;5052928;28;20051;-55
2021/09/14 03:33:18;;;;;;;2.35;0.80;;;;;;;12.60;65.11;98593.03;5069872;28;20036;-56
2021/09/14 03:35:45;;;;;;;3.38;0.95;;;;;;;12.54;65.39;98581.19;5085849;28;20044;-52
2021/09/14 03:38:12;;;;;;;1.73;1.10;;;;;;;12.61;65.62;98594.72;5076327;28;20064;-56
2021/09/14 03:40:43;;;;;;;1.55;0.90;;;;;;;12.59;65.25;98601.78;5063119;28;20048;-51
2021/09/14 03:43:13;;;;;;;1.60;0.80;;;;;;;12.65;65.08;98602.25;5052700;28;20048;-53
2021/09/14 03:45:42;;;;;;;2.72;0.80;;;;;;;12.72;64.91;98611.38;5069078;28;20682;-53
2021/09/14 03:48:09;;;;;;;1.83;1.00;;;;;;;12.66;64.79;98610.91;5064668;28;20071;-55
2021/09/14 03:50:35;;;;;;;1.40;0.98;;;;;;;12.70;64.92;98601.97;5059911;28;20203;-55
2021/09/14 03:53:02;;;;;;;2.63;0.88;;;;;;;12.71;64.96;98616.69;5071420;28;20050;-55
2021/09/14 03:55:27;;;;;;;3.22;0.90;;;;;;;12.60;64.76;98617.34;5063733;28;20067;-53
2021/09/14 03:57:54;;;;;;;1.35;1.05;;;;;;;12.56;64.80;98615.81;5065040;28;20052;-53
2021/09/14 04:00:20;;;;;;;1.50;0.90;;;;;;;12.52;64.71;98614.34;5058192;28;20036;-59
2021/09/14 04:03:06;;;;;;;2.92;0.75;;;;;;;12.55;64.87;98614.16;5073978;28;20510;-54
2021/09/14 04:10:35;;;;;;;3.83;0.90;;;;;;;12.69;63.20;98627.22;5084090;28;20044;-55
2021/09/14 04:13:01;;;;;;;8.15;1.10;;;;;;;12.67;63.18;98617.78;5074139;28;20045;-56
2021/09/14 04:15:28;;;;;;;2.83;0.80;;;;;;;12.77;63.23;98621.53;5085818;28;20046;-54
2021/09/14 04:17:54;;;;;;;2.47;0.93;;;;;;;12.80;62.82;98628.34;5078045;28;20087;-55
2021/09/14 04:20:21;;;;;;;2.05;0.90;;;;;;;12.80;62.96;98626.56;5048036;28;20041;-55
2021/09/14 04:22:47;;;;;;;2.85;0.82;;;;;;;12.80;62.99;98618.75;5048883;28;20048;-55
2021/09/14 04:25:13;;;;;;;2.88;1.08;;;;;;;12.91;62.90;98607.66;5068067;28;20048;-55
2021/09/14 04:27:39;;;;;;;3.55;0.95;;;;;;;13.04;62.73;98619.00;5060108;28;20040;-53
2021/09/14 04:30:06;;;;;;;4.70;0.70;;;;;;;12.98;62.49;98611.59;5068292;28;20430;-56
2021/09/14 04:32:32;;;;;;;1.70;0.80;;;;;;;13.01;61.77;98616.59;5068347;28;20036;-56
2021/09/14 04:34:59;;;;;;;5.38;1.10;;;;;;;13.07;61.72;98619.69;5082428;28;20091;-55
2021/09/14 04:37:25;;;;;;;3.35;0.80;;;;;;;13.13;61.70;98616.72;5094110;28;20134;-57
2021/09/14 04:39:53;;;;;;;3.50;0.90;;;;;;;13.26;61.08;98621.19;5083976;28;20045;-59
2021/09/14 04:42:19;;;;;;;2.05;0.90;;;;;;;13.30;61.02;98618.28;5071706;28;20175;-56
2021/09/14 04:44:44;;;;;;;5.45;0.88;;;;;;;13.28;60.64;98621.94;5084674;28;20127;-54
2021/09/14 04:47:11;;;;;;;4.00;1.08;;;;;;;13.20;60.58;98619.78;5051944;28;20534;-55
2021/09/14 04:49:36;;;;;;;1.42;0.77;;;;;;;13.27;60.80;98622.84;5065945;28;20044;-57
2021/09/14 04:52:07;;;;;;;3.15;1.15;;;;;;;13.25;60.80;98622.94;5083041;28;20519;-54
2021/09/14 04:54:35;;;;;;;2.58;0.80;;;;;;;13.28;60.41;98630.59;5088490;28;20046;-55
2021/09/14 04:57:01;;;;;;;2.10;0.70;;;;;;;13.21;60.80;98631.06;5070921;28;20503;-54
2021/09/14 04:59:27;;;;;;;2.05;0.90;;;;;;;13.23;60.93;98631.81;5086205;28;20047;-56
2021/09/14 05:01:53;;;;;;;2.22;1.00;;;;;;;13.31;61.02;98642.59;5078693;28;20430;-55
2021/09/14 05:04:19;;;;;;;5.72;1.58;;;;;;;13.24;61.12;98633.50;5101567;28;20542;-57
2021/09/14 05:06:45;;;;;;;10.10;2.13;;;;;;;13.18;61.02;98646.91;5107879;28;20071;-56
2021/09/14 05:09:11;;;;;;;2.55;1.02;;;;;;;13.07;61.25;98639.72;5088793;28;20040;-54
2021/09/14 05:11:44;;;;;;;2.33;0.90;;;;;;;13.04;61.41;98642.50;5090249;28;20036;-56
2021/09/14 05:14:11;;;;;;;6.20;1.17;;;;;;;13.09;61.51;98640.44;5080146;28;20100;-58
2021/09/14 05:16:50;;;;;;;2.78;0.85;;;;;;;13.06;61.67;98638.88;5082183;28;20247;-54
2021/09/14 05:19:31;;;;;;;2.30;1.10;;;;;;;13.25;61.64;98642.97;5085944;28;20427;-55
2021/09/14 05:22:01;;;;;;;2.08;1.02;;;;;;;13.31;61.37;98637.38;5091129;28;20527;-55
2021/09/14 05:24:27;;;;;;;1.85;0.88;;;;;;;13.63;60.91;98645.81;5081614;28;20461;-58
2021/09/14 05:26:54;;;;;;;2.38;1.10;;;;;;;13.81;60.67;98635.06;5098526;28;20123;-56
2021/09/14 05:29:20;;;;;;;4.80;1.17;;;;;;;14.03;60.36;98636.28;5082400;28;20036;-57
2021/09/14 05:31:46;;;;;;;4.20;1.10;;;;;;;14.16;60.02;98634.53;5086548;28;20576;-54
2021/09/14 05:34:13;;;;;;;2.33;1.17;;;;;;;14.13;60.20;98637.34;5091325;28;20044;-56
2021/09/14 05:36:41;;;;;;;3.67;1.27;;;;;;;13.99;60.63;98635.63;5076135;28;20057;-54
2021/09/14 05:39:07;;;;;;;6.82;1.40;;;;;;;13.84;60.83;98641.84;5073224;28;20025;-54
2021/09/14 05:41:33;;;;;;;8.40;1.20;;;;;;;13.86;61.19;98640.81;5064952;28;20041;-53
2021/09/14 05:44:00;;;;;;;2.22;0.77;;;;;;;13.85;60.82;98627.84;5071896;28;20218;-54
2021/09/14 05:46:28;;;;;;;2.28;0.75;;;;;;;13.93;60.87;98621.19;5064914;28;20084;-59
2021/09/14 05:48:54;;;;;;;5.15;1.38;;;;;;;14.19;60.89;98653.47;5063183;28;20069;-58
2021/09/14 05:51:21;;;;;;;3.67;1.35;;;;;;;14.26;60.72;98636.44;5075642;28;20453;-62
2021/09/14 05:54:03;;;;;;;4.32;1.15;;;;;;;14.34;60.71;98646.41;5084951;28;20044;-61
2021/09/14 05:56:31;;;;;;;1.20;0.77;;;;;;;14.11;61.14;98629.59;5084305;28;20080;-61
2021/09/14 05:59:02;;;;;;;5.05;1.30;;;;;;;14.22;61.32;98658.50;5078266;28;20041;-60
2021/09/14 06:01:28;;;;;;;3.45;1.35;;;;;;;14.27;61.22;98648.56;5062966;28;20051;-63
2021/09/14 06:03:56;;;;;;;3.40;0.93;;;;;;;14.68;60.43;98650.25;5072318;28;20047;-60
2021/09/14 06:06:23;;;;;;;1.65;0.85;;;;;;;14.83;60.10;98655.28;5065597;28;20045;-61
2021/09/14 06:08:49;;;;;;;1.13;0.73;;;;;;;14.76;59.32;98654.00;5083303;28;20052;-60
2021/09/14 06:11:15;;;;;;;2.80;1.17;;;;;;;14.27;59.57;98651.19;5071489;28;20040;-61
2021/09/14 06:14:07;;;;;;;4.75;1.23;;;;;;;14.61;59.72;98662.88;5107461;27;20128;-62
2021/09/14 06:16:33;;;;;;;2.10;0.98;;;;;;;14.95;58.55;98658.84;5070783;28;20052;-63
2021/09/14 06:19:24;;;;;;;1.95;0.82;;;;;;;15.76;56.81;98659.25;5079505;28;20047;-62
2021/09/14 06:21:50;;;;;;;1.27;1.00;;;;;;;15.93;56.04;98664.09;5057091;28;20115;-61
2021/09/14 06:24:16;;;;;;;10.50;3.67;;;;;;;16.18;55.60;98668.41;5090482;28;20186;-62
2021/09/14 06:26:43;;;;;;;3.47;1.02;;;;;;;16.26;54.59;98652.94;5083617;28;20517;-62
2021/09/14 06:29:10;;;;;;;3.15;1.70;;;;;;;16.94;52.12;98653.03;5090822;28;20071;-61
2021/09/14 06:31:36;;;;;;;3.97;0.90;;;;;;;17.79;50.34;98650.75;5066767;28;20499;-63
2021/09/14 06:34:06;;;;;;;6.55;2.50;;;;;;;17.58;51.41;98649.81;5066759;28;20576;-62
2021/09/14 06:36:32;;;;;;;3.33;0.77;;;;;;;17.21;50.62;98651.88;5119873;27;20052;-60
2021/09/14 06:38:58;;;;;;;1.27;0.70;;;;;;;17.25;49.54;98648.88;5127342;27;20038;-62
2021/09/14 06:41:36;;;;;;;1.67;0.93;;;;;;;17.04;49.61;98644.44;5098675;28;20065;-59
2021/09/14 06:44:11;;;;;;;3.70;1.67;;;;;;;17.35;49.08;98641.94;5113363;27;20048;-64
2021/09/14 06:46:46;;;;;;;3.00;1.30;;;;;;;17.10;49.21;98651.84;5089359;27;20421;-62
2021/09/14 06:49:13;;;;;;;3.60;0.90;;;;;;;16.52;50.50;98646.59;5128035;27;20134;-62
2021/09/14 06:51:39;;;;;;;1.00;0.80;;;;;;;15.98;51.78;98656.75;5126427;27;20130;-62
2021/09/14 06:54:05;;;;;;;30.75;9.38;;;;;;;15.80;51.79;98645.00;5113010;27;20040;-63
2021/09/14 06:56:37;;;;;;;7.07;2.47;;;;;;;15.81;52.30;98656.28;5096519;27;20049;-63
2021/09/14 06:59:03;;;;;;;16.30;4.78;;;;;;;15.86;52.11;98667.31;5109281;28;20062;-61
2021/09/14 07:01:29;;;;;;;2.97;0.68;;;;;;;15.76;51.75;98661.00;5111079;28;20040;-61
2021/09/14 07:03:58;;;;;;;6.05;2.10;;;;;;;16.25;51.15;98640.78;5102218;28;20043;-61
2021/09/14 07:06:27;;;;;;;2.42;0.88;;;;;;;16.91;47.63;98661.13;5096537;28;20046;-62
2021/09/14 07:09:03;;;;;;;;;;;;;;;;;;;;;
2021/09/14 07:11:33;;;;;;;5.43;1.40;;;;;;;17.58;46.96;98661.16;5109495;27;20062;-66
2021/09/14 07:13:59;;;;;;;2.95;1.48;;;;;;;17.95;46.01;98650.38;5101427;27;20499;-65
2021/09/14 07:16:25;;;;;;;2.70;1.17;;;;;;;17.95;46.04;98666.94;5104656;28;20064;-65
2021/09/14 07:18:51;;;;;;;1.92;0.93;;;;;;;17.41;46.18;98658.19;5100681;27;20472;-66
2021/09/14 07:21:17;;;;;;;1.85;0.93;;;;;;;17.00;47.24;98650.91;5093208;28;20031;-66
2021/09/14 07:23:43;;;;;;;2.72;0.90;;;;;;;16.60;47.61;98648.66;5111601;28;20043;-66
2021/09/14 07:26:09;;;;;;;3.35;0.90;;;;;;;16.19;48.02;98667.44;5107294;28;20127;-64
2021/09/14 07:28:34;;;;;;;2.58;0.90;;;;;;;16.12;48.38;98678.53;5125480;27;20512;-64
2021/09/14 07:31:00;;;;;;;2.70;0.93;;;;;;;16.38;47.43;98667.75;5131903;27;20039;-63
2021/09/14 07:33:26;;;;;;;5.13;2.47;;;;;;;16.86;46.42;98675.56;5131908;27;20471;-66
2021/09/14 07:35:52;;;;;;;7.97;1.90;;;;;;;17.78;44.69;98673.59;5113510;27;20060;-68
2021/09/14 07:38:18;;;;;;;8.35;2.83;;;;;;;18.50;42.35;98670.34;5094928;27;20482;-65
2021/09/14 07:40:44;;;;;;;2.20;0.90;;;;;;;18.03;41.73;98682.13;5090775;28;20502;-63
2021/09/14 07:43:10;;;;;;;2.63;1.00;;;;;;;17.64;42.75;98670.34;5123864;27;20047;-66
2021/09/14 07:45:35;;;;;;;3.08;1.10;;;;;;;17.51;43.74;98681.00;5113858;27;20065;-66
2021/09/14 07:48:01;;;;;;;2.53;1.10;;;;;;;17.43;43.90;98686.00;5111080;28;20085;-66
2021/09/14 07:50:28;;;;;;;3.65;2.00;;;;;;;17.48;44.05;98686.47;5072668;28;20044;-64
2021/09/14 07:53:02;;;;;;;1.65;0.70;;;;;;;17.02;44.31;98685.72;5090882;28;20044;-63
2021/09/14 07:55:28;;;;;;;2.15;0.65;;;;;;;16.60;45.57;98689.81;5089398;28;20521;-65
2021/09/14 07:57:54;;;;;;;7.20;2.05;;;;;;;16.61;46.04;98681.84;5090547;28;20096;-66
2021/09/14 08:00:20;;;;;;;2.80;1.70;;;;;;;16.64;46.18;98672.91;5072318;28;20081;-65
2021/09/14 08:02:56;;;;;;;5.75;1.40;;;;;;;16.58;45.77;98679.41;5074132;28;20035;-64
2021/09/14 08:05:23;;;;;;;2.17;0.70;;;;;;;16.30;45.61;98664.88;5110762;28;20092;-66
2021/09/14 08:07:49;;;;;;;1.75;1.00;;;;;;;16.34;45.98;98687.31;5110791;28;20100;-65
2021/09/14 08:10:15;;;;;;;6.70;1.00;;;;;;;16.37;45.00;98694.13;5125770;27;20040;-63
2021/09/14 08:12:41;;;;;;;1.90;0.80;;;;;;;16.30;44.04;98682.41;5095686;27;20158;-64
2021/09/14 08:15:07;;;;;;;2.60;0.85;;;;;;;16.53;42.07;98694.66;5116196;27;20575;-63
2021/09/14 08:17:33;;;;;;;5.82;1.55;;;;;;;16.68;41.60;98680.44;5127553;27;20465;-65
2021/09/14 08:20:00;;;;;;;4.03;0.95;;;;;;;16.46;41.65;98682.94;5111716;27;20070;-65
2021/09/14 08:22:26;;;;;;;1.52;0.70;;;;;;;16.00;41.72;98682.88;5103586;27;20514;-64
2021/09/14 08:24:51;;;;;;;5.07;2.40;;;;;;;16.21;42.55;98688.31;5129876;27;20070;-65
2021/09/14 08:27:17;;;;;;;0.77;0.60;;;;;;;15.99;42.13;98687.25;5131111;27;20045;-64
2021/09/14 08:29:47;;;;;;;4.20;0.90;;;;;;;15.68;42.99;98672.06;5128367;27;20092;-64
2021/09/14 08:32:20;;;;;;;4.82;0.90;;;;;;;15.52;43.15;98674.94;5114829;28;20035;-65
2021/09/14 08:34:46;;;;;;;3.22;0.73;;;;;;;15.15;42.81;98670.56;5121729;28;20054;-65
2021/09/14 08:37:12;;;;;;;5.32;0.70;;;;;;;15.07;42.65;98673.69;5126413;27;20057;-64
2021/09/14 08:39:38;;;;;;;3.83;0.70;;;;;;;15.07;43.59;98673.69;5124364;28;20046;-65
2021/09/14 08:42:04;;;;;;;2.75;0.70;;;;;;;15.03;43.33;98674.00;5091664;28;20036;-64
2021/09/14 08:44:30;;;;;;;2.13;0.80;;;;;;;15.20;43.30;98678.91;5096045;28;20031;-66
2021/09/14 08:46:56;;;;;;;1.50;0.80;;;;;;;15.39;43.63;98686.31;5114193;28;20537;-66
2021/09/14 08:49:24;;;;;;;2.67;0.70;;;;;;;15.21;43.49;98673.59;5130776;28;20047;-66
2021/09/14 08:51:50;;;;;;;3.67;0.80;;;;;;;14.97;43.54;98688.34;5084129;28;20043;-65
2021/09/14 08:54:16;;;;;;;1.02;0.65;;;;;;;14.78;43.89;98683.53;5088718;28;20400;-65
2021/09/14 09:00:15;;;;;;;1.45;0.88;;;;;;;14.38;44.67;98674.06;5071542;28;20044;-64
2021/09/14 09:02:41;;;;;;;0.85;0.50;;;;;;;14.53;44.77;98696.56;5088989;28;20044;-65
2021/09/14 09:05:07;;;;;;;3.38;1.48;;;;;;;14.65;45.26;98692.31;5097603;28;20035;-66
2021/09/14 09:07:34;;;;;;;2.50;0.95;;;;;;;14.82;45.48;98681.53;5088266;28;20116;-65
2021/09/14 09:10:16;;;;;;;1.75;0.68;;;;;;;14.65;45.16;98679.22;5090078;28;20036;-65
2021/09/14 09:12:44;;;;;;;0.80;0.70;;;;;;;14.52;45.13;98686.19;5074554;28;20047;-61
2021/09/14 09:15:21;;;;;;;2.03;0.65;;;;;;;14.48;44.71;98687.34;5092330;28;20061;-65
2021/09/14 09:18:08;;;;;;;0.65;0.57;;;;;;;14.61;44.72;98689.03;5074478;28;20120;-63
2021/09/14 09:20:39;;;;;;;3.35;0.75;;;;;;;14.95;44.75;98687.63;5110196;28;20520;-62
2021/09/14 09:23:10;;;;;;;2.33;1.10;;;;;;;14.99;44.56;98677.78;5109845;28;20630;-64
2021/09/14 09:25:38;;;;;;;4.25;0.82;;;;;;;15.00;44.97;98667.22;5110406;28;20040;-64
2021/09/14 09:28:18;;;;;;;2.90;1.55;;;;;;;15.01;44.95;98653.19;5098347;28;20134;-65
2021/09/14 09:30:54;;;;;;;5.90;1.33;;;;;;;15.29;44.94;98670.41;5077273;28;20044;-64
2021/09/14 09:33:27;;;;;;;1.23;0.65;;;;;;;15.15;44.54;98670.56;5091568;28;20055;-64
2021/09/14 09:36:01;;;;;;;2.20;0.75;;;;;;;15.02;44.47;98664.50;5092008;28;20063;-63
2021/09/14 09:38:27;;;;;;;6.90;0.90;;;;;;;14.91;44.37;98682.72;5092202;28;20079;-66
2021/09/14 09:40:53;;;;;;;1.27;0.60;;;;;;;14.74;43.50;98674.22;5093292;28;20514;-64
2021/09/14 09:43:28;;;;;;;3.30;0.60;;;;;;;14.83;43.48;98673.59;5092987;28;20046;-65
2021/09/14 09:46:04;;;;;;;3.10;0.73;;;;;;;14.94;43.67;98675.47;5116104;27;20088;-66
2021/09/14 09:48:34;;;;;;;1.73;0.80;;;;;;;15.02;43.91;98680.19;5103455;27;20479;-64
2021/09/14 09:51:00;;;;;;;2.45;0.65;;;;;;;14.81;44.56;98669.41;5093180;28;20078;-65
2021/09/14 09:53:26;;;;;;;4.43;0.60;;;;;;;14.73;44.88;98680.38;5074683;28;20152;-64
2021/09/14 09:55:51;;;;;;;4.90;1.52;;;;;;;14.83;44.91;98678.81;5091207;28;20426;-64
2021/09/14 09:58:18;;;;;;;4.35;0.82;;;;;;;15.19;44.28;98679.84;5092444;28;20456;-63
2021/09/14 10:00:54;;;;;;;3.10;0.73;;;;;;;15.43;43.97;98687.81;5092575;28;20059;-64
2021/09/14 10:03:26;;;;;;;2.95;1.05;;;;;;;15.39;43.69;98686.31;5074793;28;20043;-66
2021/09/14 10:05:54;;;;;;;1.27;0.80;;;;;;;15.25;43.97;98692.53;5119244;27;20513;-65
2021/09/14 10:08:23;;;;;;;2.78;0.70;;;;;;;15.81;42.22;98703.44;5110993;27;20036;-65
2021/09/14 10:10:56;;;;;;;2.60;0.82;;;;;;;15.66;41.90;98711.47;5074461;28;20507;-63
2021/09/14 10:13:36;;;;;;;3.33;0.80;;;;;;;15.49;42.07;98700.47;5091468;28;20067;-63
2021/09/14 10:16:02;;;;;;;2.85;0.85;;;;;;;15.69;42.36;98705.19;5074284;28;20063;-63
2021/09/14 10:18:30;;;;;;;4.75;0.90;;;;;;;16.17;41.67;98706.09;5094496;28;20036;-64
2021/09/14 10:20:56;;;;;;;1.30;0.80;;;;;;;16.68;40.73;98704.06;5092341;28;20044;-64
2021/09/14 10:23:29;;;;;;;2.55;1.17;;;;;;;17.48;39.34;98698.78;5091170;28;20040;-65
2021/09/14 10:26:09;;;;;;;3.20;0.88;;;;;;;18.39;36.54;98708.06;5090688;28;20068;-64
2021/09/14 10:29:02;;;;;;;4.47;1.23;;;;;;;19.39;35.05;98706.69;5090663;28;20070;-66
2021/09/14 10:31:35;;;;;;;2.78;1.55;;;;;;;21.58;33.35;98705.28;5107239;27;20064;-65
2021/09/14 10:34:05;;;;;;;1.83;1.10;;;;;;;22.69;29.10;98717.28;5099888;27;20683;-64
2021/09/14 10:36:32;;;;;;;2.03;0.95;;;;;;;22.08;28.73;98709.25;5123723;27;20039;-64
2021/09/14 10:38:59;;;;;;;1.67;0.82;;;;;;;21.83;29.42;98708.09;5119706;27;20023;-64
2021/09/14 10:41:35;;;;;;;3.60;1.25;;;;;;;22.16;29.34;98704.03;5085952;28;20042;-64
2021/09/14 10:44:08;;;;;;;1.38;0.73;;;;;;;21.83;29.28;98712.53;5121608;27;20052;-63
2021/09/14 10:46:35;;;;;;;1.58;0.90;;;;;;;21.57;29.73;98704.44;5114373;27;20414;-65
2021/09/14 10:49:12;;;;;;;2.00;0.95;;;;;;;22.86;28.25;98696.25;5096321;28;20035;-66
2021/09/14 10:51:38;;;;;;;1.98;0.55;;;;;;;22.26;28.11;98707.44;5107176;27;20027;-66
2021/09/14 10:54:04;;;;;;;1.00;0.70;;;;;;;22.38;28.10;98714.19;5124714;27;20510;-63
2021/09/14 10:56:30;;;;;;;1.58;0.82;;;;;;;21.55;29.36;98695.84;5115025;27;20051;-64
2021/09/14 10:58:56;;;;;;;1.77;1.20;;;;;;;20.82;29.99;98694.78;5095930;27;20046;-63
2021/09/14 11:01:25;;;;;;;2.70;0.70;;;;;;;19.95;31.15;98700.94;5093274;27;20095;-64
2021/09/14 11:04:04;;;;;;;5.22;0.77;;;;;;;18.97;32.95;98695.38;5118097;27;20035;-64
2021/09/14 11:06:30;;;;;;;1.02;0.90;;;;;;;20.23;31.13;98708.91;5099905;28;20443;-64
2021/09/14 11:08:57;;;;;;;4.45;0.82;;;;;;;19.50;31.76;98690.81;5107459;28;20032;-64
2021/09/14 11:11:23;;;;;;;1.08;0.50;;;;;;;18.23;33.78;98709.44;5116264;27;20557;-63
2021/09/14 11:13:56;;;;;;;3.70;0.90;;;;;;;17.92;34.79;98685.63;5116074;27;20042;-64
2021/09/14 11:16:24;;;;;;;1.65;0.65;;;;;;;18.82;32.51;98699.28;5117328;27;20049;-65
2021/09/14 11:18:50;;;;;;;4.50;0.80;;;;;;;18.09;33.89;98684.25;5124975;27;20481;-65
2021/09/14 11:21:18;;;;;;;2.20;0.80;;;;;;;17.84;34.59;98679.31;5092007;28;20067;-64
2021/09/14 11:23:46;;;;;;;3.95;3.00;;;;;;;18.26;34.01;98677.63;5093359;28;20035;-65
2021/09/14 11:26:21;;;;;;;4.00;0.90;;;;;;;19.63;32.16;98666.84;5127633;27;20045;-63
2021/09/14 11:28:58;;;;;;;2.17;1.20;;;;;;;20.60;30.95;98666.84;5130461;27;20491;-65
2021/09/14 11:31:42;;;;;;;2.42;1.00;;;;;;;22.56;27.86;98678.94;5096208;27;20048;-63
2021/09/14 11:34:08;;;;;;;2.42;1.10;;;;;;;23.08;27.85;98671.88;5131788;27;20035;-63
2021/09/14 11:36:35;;;;;;;3.10;0.90;;;;;;;23.60;27.22;98664.72;5100894;28;20077;-64
2021/09/14 11:39:05;;;;;;;1.98;0.75;;;;;;;23.47;26.60;98664.31;5103074;27;20092;-64
2021/09/14 11:41:35;;;;;;;3.33;0.60;;;;;;;21.61;27.56;98667.97;5094721;27;20498;-66
2021/09/14 11:44:01;;;;;;;3.75;0.98;;;;;;;20.31;29.90;98663.38;5056221;28;20059;-66
2021/09/14 11:46:27;;;;;;;1.35;0.55;;;;;;;19.33;30.97;98670.31;5072725;28;20494;-64
2021/09/14 11:49:08;;;;;;;7.00;0.60;;;;;;;18.53;32.39;98665.66;5090222;28;20532;-64
2021/09/14 11:51:40;;;;;;;2.75;0.52;;;;;;;18.05;33.23;98667.91;5089100;28;20043;-64
2021/09/14 11:54:12;;;;;;;2.53;0.70;;;;;;;18.20;33.55;98652.66;5113786;27;20130;-64
2021/09/14 11:56:42;;;;;;;3.50;0.77;;;;;;;18.10;33.64;98657.00;5110673;28;20047;-64
2021/09/14 11:59:17;;;;;;;1.27;0.60;;;;;;;17.36;34.56;98648.88;5092246;28;20497;-65
2021/09/14 12:01:44;;;;;;;1.98;0.70;;;;;;;17.38;34.88;98651.34;5091045;28;20040;-64
2021/09/14 12:04:17;;;;;;;1.42;0.82;;;;;;;17.31;34.81;98634.44;5090352;28;20125;-65
2021/09/14 12:06:50;;;;;;;3.90;0.75;;;;;;;16.90;35.78;98645.53;5090359;28;20044;-64
2021/09/14 12:09:18;;;;;;;1.42;0.60;;;;;;;17.10;35.88;98659.72;5091691;27;20040;-64
2021/09/14 12:11:44;;;;;;;2.78;0.57;;;;;;;17.05;36.08;98657.47;5104449;28;20071;-65
2021/09/14 12:14:12;;;;;;;1.92;0.38;;;;;;;16.94;35.39;98649.56;5114733;27;20123;-64
2021/09/14 12:19:52;;;;;;;4.65;0.82;;;;;;;17.35;35.48;98662.13;5103015;27;20071;-65
2021/09/14 12:23:08;;;;;;;1.30;0.60;;;;;;;17.65;34.42;98658.88;5101642;27;20130;-65
2021/09/14 12:25:34;;;;;;;1.05;0.47;;;;;;;17.62;33.86;98661.78;5118320;27;20043;-63
2021/09/14 12:31:49;;;;;;;2.78;0.80;;;;;;;18.11;34.24;98659.50;5098219;27;20063;-64
2021/09/14 12:38:32;;;;;;;5.22;0.85;;;;;;;18.61;33.36;98665.06;4958862;28;20094;-64
2021/09/14 12:40:58;;;;;;;7.10;0.95;;;;;;;19.21;32.23;98664.28;5096609;28;20527;-64
2021/09/14 12:43:24;;;;;;;1.27;0.60;;;;;;;19.56;30.29;98666.56;5116034;28;20035;-63
2021/09/14 12:45:51;;;;;;;4.88;1.05;;;;;;;20.00;30.70;98661.78;5101561;28;20054;-64
2021/09/14 12:48:22;;;;;;;1.40;0.52;;;;;;;19.64;30.32;98656.16;5107235;28;20108;-64
2021/09/14 12:50:51;;;;;;;4.13;0.80;;;;;;;19.21;31.04;98671.38;5123275;28;20042;-63
2021/09/14 12:53:17;;;;;;;6.35;0.70;;;;;;;18.72;31.96;98679.97;5104577;28;20063;-64